createdAt,value
2017-05-23T00:02:24.953Z,7.36
2017-05-23T00:04:54.163Z,8.20
2017-05-23T00:07:23.358Z,7.68
2017-05-23T00:09:52.877Z,7.38
2017-05-23T00:12:22.072Z,6.92
2017-05-23T00:14:51.328Z,6.66
2017-05-23T00:17:20.523Z,7.62
2017-05-23T00:19:49.728Z,6.40
2017-05-23T00:22:19.068Z,6.80
2017-05-23T00:24:48.469Z,7.38
2017-05-23T00:27:18.129Z,7.34
2017-05-23T00:29:47.393Z,7.46
2017-05-23T00:32:17.011Z,7.34
2017-05-23T00:34:46.644Z,8.22
2017-05-23T00:37:15.883Z,7.92
2017-05-23T00:39:52.464Z,6.78
2017-05-23T00:42:22.071Z,7.20
2017-05-23T00:44:51.456Z,7.24
2017-05-23T00:47:21.235Z,7.66
2017-05-23T00:49:50.912Z,7.74
2017-05-23T00:52:20.230Z,7.16
2017-05-23T00:54:49.451Z,7.70
2017-05-23T00:57:18.645Z,7.46
2017-05-23T00:59:47.883Z,6.92
2017-05-23T01:02:17.300Z,6.80
2017-05-23T01:04:46.757Z,7.74
2017-05-23T01:07:15.954Z,6.50
2017-05-23T01:09:45.360Z,6.82
2017-05-23T01:12:14.535Z,7.32
2017-05-23T01:14:44.166Z,6.56
2017-05-23T01:17:13.448Z,8.00
2017-05-23T01:19:42.664Z,6.82
2017-05-23T01:22:11.849Z,7.84
2017-05-23T01:24:41.140Z,7.08
2017-05-23T01:27:10.336Z,7.80
2017-05-23T01:29:39.770Z,7.46
2017-05-23T01:32:09.321Z,6.70
2017-05-23T01:34:38.556Z,6.62
2017-05-23T01:37:08.052Z,6.82
2017-05-23T01:39:37.794Z,7.86
2017-05-23T01:42:07.053Z,7.64
2017-05-23T01:44:36.579Z,8.36
2017-05-23T01:47:05.820Z,8.44
2017-05-23T01:49:35.065Z,7.92
2017-05-23T01:52:04.692Z,7.50
2017-05-23T01:54:34.201Z,7.88
2017-05-23T01:57:03.697Z,7.08
2017-05-23T01:59:33.242Z,7.78
2017-05-23T02:02:02.576Z,7.22
2017-05-23T02:04:31.764Z,7.52
2017-05-23T02:07:00.973Z,8.74
2017-05-23T02:09:30.171Z,7.38
2017-05-23T02:11:59.739Z,7.70
2017-05-23T02:14:29.245Z,7.12
2017-05-23T02:16:58.981Z,7.82
2017-05-23T02:19:28.189Z,7.40
2017-05-23T02:21:57.387Z,7.84
2017-05-23T02:24:27.080Z,7.88
2017-05-23T02:26:56.291Z,8.68
2017-05-23T02:29:25.703Z,8.32
2017-05-23T02:31:56.507Z,7.66
2017-05-23T02:34:25.913Z,7.66
2017-05-23T02:36:55.416Z,8.22
2017-05-23T02:39:24.644Z,8.10
2017-05-23T02:41:53.842Z,8.50
2017-05-23T02:44:23.047Z,8.20
2017-05-23T02:46:52.594Z,6.88
2017-05-23T02:49:22.305Z,7.24
2017-05-23T02:51:51.555Z,6.96
2017-05-23T02:54:20.742Z,7.42
2017-05-23T02:56:50.052Z,7.38
2017-05-23T02:59:19.349Z,6.46
2017-05-23T03:01:48.552Z,8.94
2017-05-23T03:04:17.741Z,6.48
2017-05-23T03:06:47.048Z,6.78
2017-05-23T03:09:16.831Z,6.46
2017-05-23T03:11:46.425Z,7.28
2017-05-23T03:14:15.640Z,7.98
2017-05-23T03:16:45.131Z,7.72
2017-05-23T03:19:14.347Z,7.06
2017-05-23T03:21:43.591Z,7.86
2017-05-23T03:24:12.776Z,7.76
2017-05-23T03:26:42.002Z,8.10
2017-05-23T03:29:11.204Z,7.26
2017-05-23T03:31:40.836Z,8.00
2017-05-23T03:34:09.997Z,7.02
2017-05-23T03:36:39.304Z,7.08
2017-05-23T03:39:08.494Z,7.08
2017-05-23T03:41:38.094Z,6.74
2017-05-23T03:44:07.485Z,7.68
2017-05-23T03:46:36.703Z,6.30
2017-05-23T03:49:05.901Z,6.48
2017-05-23T03:51:35.509Z,6.24
2017-05-23T03:54:04.832Z,6.58
2017-05-23T03:56:34.641Z,6.80
2017-05-23T03:59:03.835Z,6.86
2017-05-23T04:01:33.152Z,6.92
2017-05-23T04:04:02.328Z,5.50
2017-05-23T04:06:31.676Z,6.56
2017-05-23T04:09:01.186Z,7.10
2017-05-23T04:11:30.399Z,6.60
2017-05-23T04:13:59.852Z,7.28
2017-05-23T04:16:29.048Z,7.16
2017-05-23T04:18:58.623Z,6.72
2017-05-23T04:21:27.829Z,7.22
2017-05-23T04:23:57.243Z,6.52
2017-05-23T04:26:26.657Z,7.02
2017-05-23T04:28:56.278Z,6.86
2017-05-23T04:31:25.504Z,7.46
2017-05-23T04:33:54.695Z,6.92
2017-05-23T04:36:23.919Z,7.50
2017-05-23T04:38:53.430Z,7.08
2017-05-23T04:41:23.377Z,6.94
2017-05-23T04:43:52.636Z,7.00
2017-05-23T04:46:22.201Z,6.62
2017-05-23T04:48:51.393Z,7.12
2017-05-23T04:51:20.829Z,5.48
2017-05-23T04:53:50.454Z,5.90
2017-05-23T04:56:19.697Z,6.00
2017-05-23T04:58:49.291Z,6.58
2017-05-23T05:01:18.496Z,5.60
2017-05-23T05:03:47.712Z,5.38
2017-05-23T05:06:16.990Z,5.30
2017-05-23T05:08:46.497Z,4.70
2017-05-23T05:11:16.618Z,5.50
2017-05-23T05:13:46.304Z,4.78
2017-05-23T05:16:15.500Z,5.52
2017-05-23T05:18:44.741Z,5.46
2017-05-23T05:21:13.939Z,5.52
2017-05-23T05:23:43.137Z,5.02
2017-05-23T05:26:12.457Z,4.82
2017-05-23T05:28:41.652Z,4.60
2017-05-23T05:31:10.887Z,4.60
2017-05-23T05:33:40.764Z,4.20
2017-05-23T05:36:09.956Z,4.90
2017-05-23T05:38:39.476Z,4.46
2017-05-23T05:41:08.695Z,4.84
2017-05-23T05:43:37.885Z,4.78
2017-05-23T05:46:07.214Z,4.30
2017-05-23T05:48:36.428Z,4.82
2017-05-23T05:51:05.835Z,4.88
2017-05-23T05:53:35.036Z,4.82
2017-05-23T05:56:04.254Z,5.30
2017-05-23T05:58:34.224Z,4.28
2017-05-23T06:01:03.453Z,4.56
2017-05-23T06:03:32.744Z,4.60
2017-05-23T06:06:01.958Z,4.58
2017-05-23T06:08:31.274Z,4.38
2017-05-23T06:11:00.479Z,3.56
2017-05-23T06:13:34.794Z,4.20
2017-05-23T06:16:04.104Z,3.80
2017-05-23T06:18:33.363Z,4.38
2017-05-23T06:21:03.974Z,4.60
2017-05-23T06:23:33.525Z,4.04
2017-05-23T06:26:02.857Z,4.24
2017-05-23T06:28:32.055Z,4.18
2017-05-23T06:31:01.639Z,4.18
2017-05-23T06:33:30.843Z,4.12
2017-05-23T06:36:00.077Z,3.60
2017-05-23T06:38:29.318Z,3.82
2017-05-23T06:40:58.809Z,3.54
2017-05-23T06:43:28.221Z,3.58
2017-05-23T06:45:57.417Z,3.10
2017-05-23T06:48:26.609Z,4.12
2017-05-23T06:50:55.846Z,4.18
2017-05-23T06:53:25.102Z,3.20
2017-05-23T06:55:54.277Z,3.60
2017-05-23T06:58:23.524Z,3.80
2017-05-23T07:00:53.012Z,3.42
2017-05-23T07:03:22.232Z,3.42
2017-05-23T07:05:51.431Z,3.26
2017-05-23T07:08:20.670Z,3.50
2017-05-23T07:10:49.831Z,3.00
2017-05-23T07:13:19.182Z,3.72
2017-05-23T07:15:48.374Z,3.80
2017-05-23T07:18:18.209Z,3.94
2017-05-23T07:20:47.886Z,3.46
2017-05-23T07:23:17.101Z,3.54
2017-05-23T07:25:46.685Z,3.28
2017-05-23T07:28:15.895Z,2.90
2017-05-23T07:30:45.089Z,3.80
2017-05-23T07:33:14.312Z,3.46
2017-05-23T07:35:43.492Z,4.52
2017-05-23T07:38:12.736Z,3.70
2017-05-23T07:40:42.109Z,3.26
2017-05-23T07:43:11.760Z,3.06
2017-05-23T07:45:40.975Z,3.72
2017-05-23T07:48:10.169Z,3.72
2017-05-23T07:50:39.829Z,3.14
2017-05-23T07:53:09.389Z,3.20
2017-05-23T07:55:38.588Z,3.22
2017-05-23T07:58:07.803Z,3.18
2017-05-23T08:00:38.464Z,3.74
2017-05-23T08:03:07.654Z,2.84
2017-05-23T08:05:37.329Z,2.96
2017-05-23T08:08:07.013Z,2.96
2017-05-23T08:10:36.541Z,3.34
2017-05-23T08:13:06.252Z,3.10
2017-05-23T08:15:35.606Z,3.46
2017-05-23T08:18:05.295Z,3.00
2017-05-23T08:20:34.496Z,3.22
2017-05-23T08:23:03.869Z,3.58
2017-05-23T08:25:34.413Z,3.06
2017-05-23T08:28:03.617Z,3.12
2017-05-23T08:30:32.830Z,2.92
2017-05-23T08:33:02.324Z,2.90
2017-05-23T08:35:32.821Z,3.56
2017-05-23T08:38:02.044Z,2.90
2017-05-23T08:40:31.256Z,2.86
2017-05-23T08:43:00.490Z,2.94
2017-05-23T08:45:29.693Z,2.32
2017-05-23T08:47:58.893Z,3.10
2017-05-23T08:50:29.290Z,3.00
2017-05-23T08:52:59.042Z,2.44
2017-05-23T08:55:28.256Z,3.02
2017-05-23T08:57:57.582Z,3.06
2017-05-23T09:00:26.924Z,3.16
2017-05-23T09:02:56.108Z,3.18
2017-05-23T09:05:25.364Z,2.98
2017-05-23T09:07:54.818Z,2.74
2017-05-23T09:10:24.068Z,3.30
2017-05-23T09:12:54.862Z,3.48
2017-05-23T09:15:24.063Z,2.80
2017-05-23T09:17:53.286Z,3.20
2017-05-23T09:20:22.540Z,2.70
2017-05-23T09:22:51.869Z,2.90
2017-05-23T09:25:25.609Z,2.64
2017-05-23T09:27:55.397Z,3.10
2017-05-23T09:30:24.640Z,3.18
2017-05-23T09:32:54.141Z,2.84
2017-05-23T09:35:23.719Z,3.20
2017-05-23T09:37:53.271Z,3.06
2017-05-23T09:40:22.475Z,3.18
2017-05-23T09:42:51.697Z,2.74
2017-05-23T09:45:21.113Z,3.02
2017-05-23T09:47:51.440Z,2.60
2017-05-23T09:50:20.872Z,3.46
2017-05-23T09:52:50.106Z,3.30
2017-05-23T09:55:19.532Z,2.98
2017-05-23T09:57:48.740Z,3.08
2017-05-23T10:00:19.597Z,3.20
2017-05-23T10:02:48.925Z,3.44
2017-05-23T10:05:18.164Z,3.12
2017-05-23T10:07:47.395Z,3.74
2017-05-23T10:10:16.645Z,3.46
2017-05-23T10:12:45.857Z,3.10
2017-05-23T10:15:15.350Z,3.42
2017-05-23T10:17:44.611Z,3.12
2017-05-23T10:20:13.841Z,2.90
2017-05-23T10:22:43.444Z,3.44
2017-05-23T10:25:12.751Z,3.42
2017-05-23T10:27:42.469Z,2.96
2017-05-23T10:30:11.688Z,3.42
2017-05-23T10:32:40.888Z,3.02
2017-05-23T10:35:10.091Z,2.20
2017-05-23T10:37:39.411Z,2.66
2017-05-23T10:40:09.032Z,2.36
2017-05-23T10:42:38.328Z,3.16
2017-05-23T10:45:07.808Z,3.04
2017-05-23T10:47:37.061Z,2.46
2017-05-23T10:50:06.284Z,2.76
2017-05-23T10:52:35.537Z,2.74
2017-05-23T10:55:05.396Z,2.70
2017-05-23T10:57:34.656Z,2.68
2017-05-23T11:00:03.980Z,3.00
2017-05-23T11:02:33.219Z,2.96
2017-05-23T11:05:02.624Z,2.80
2017-05-23T11:07:32.073Z,3.12
2017-05-23T11:10:01.494Z,3.10
2017-05-23T11:12:30.840Z,2.94
2017-05-23T11:15:00.063Z,2.86
2017-05-23T11:17:31.056Z,3.66
2017-05-23T11:20:00.267Z,2.98
2017-05-23T11:22:29.472Z,3.78
2017-05-23T11:24:58.696Z,3.16
2017-05-23T11:27:27.976Z,3.58
2017-05-23T11:29:57.962Z,3.00
2017-05-23T11:32:27.254Z,2.68
2017-05-23T11:40:58.291Z,3.44
2017-05-23T11:43:27.508Z,3.24
2017-05-23T11:45:56.988Z,3.20
2017-05-23T11:48:26.295Z,3.24
2017-05-23T11:50:56.061Z,2.92
2017-05-23T11:53:25.278Z,3.54
2017-05-23T11:55:54.474Z,3.44
2017-05-23T11:58:24.274Z,4.18
2017-05-23T12:01:24.841Z,3.94
2017-05-23T12:03:54.391Z,3.96
2017-05-23T12:06:24.308Z,4.00
2017-05-23T12:08:53.690Z,4.04
2017-05-23T12:11:23.108Z,4.52
2017-05-23T12:13:52.589Z,5.22
2017-05-23T12:16:22.049Z,3.54
2017-05-23T12:18:51.756Z,4.10
2017-05-23T12:21:21.495Z,4.58
2017-05-23T12:23:55.158Z,4.50
2017-05-23T12:26:27.242Z,4.98
2017-05-23T12:28:56.439Z,6.56
2017-05-23T12:31:25.693Z,4.80
2017-05-23T12:33:55.694Z,5.12
2017-05-23T12:36:25.231Z,5.86
2017-05-23T12:38:54.499Z,6.32
2017-05-23T12:41:23.920Z,7.28
2017-05-23T12:43:53.369Z,7.44
2017-05-23T12:46:22.888Z,7.40
2017-05-23T12:48:52.114Z,7.52
2017-05-23T12:51:21.483Z,6.02
2017-05-23T12:53:50.712Z,6.48
2017-05-23T12:56:20.079Z,8.00
2017-05-23T12:58:49.412Z,9.46
2017-05-23T13:01:18.898Z,7.74
2017-05-23T13:03:48.588Z,7.94
2017-05-23T13:06:18.164Z,10.10
2017-05-23T13:08:47.913Z,11.02
2017-05-23T13:11:17.396Z,13.34
2017-05-23T13:13:47.052Z,12.04
2017-05-23T13:16:16.783Z,15.54
2017-05-23T13:18:46.316Z,15.02
2017-05-23T13:21:15.892Z,17.30
2017-05-23T13:23:45.700Z,15.88
2017-05-23T13:26:15.828Z,18.08
2017-05-23T13:28:46.218Z,18.12
2017-05-23T13:31:15.684Z,16.04
2017-05-23T13:33:45.150Z,20.18
2017-05-23T13:36:15.156Z,19.20
2017-05-23T13:38:44.790Z,18.70
2017-05-23T13:41:14.275Z,20.26
2017-05-23T13:43:46.824Z,17.24
2017-05-23T13:46:16.916Z,17.66
2017-05-23T13:48:46.682Z,17.24
2017-05-23T13:51:15.987Z,17.22
2017-05-23T13:53:45.762Z,20.02
2017-05-23T13:56:15.605Z,21.22
2017-05-23T13:58:46.033Z,22.14
2017-05-23T14:01:15.432Z,24.48
2017-05-23T14:03:46.183Z,24.16
2017-05-23T14:06:16.171Z,21.16
2017-05-23T14:08:46.432Z,19.54
2017-05-23T14:11:16.076Z,18.26
2017-05-23T14:13:46.393Z,19.20
2017-05-23T14:16:15.736Z,16.68
2017-05-23T14:18:45.281Z,15.58
2017-05-23T14:21:14.632Z,13.96
2017-05-23T14:23:44.043Z,13.62
2017-05-23T14:26:13.345Z,12.90
2017-05-23T14:28:42.580Z,13.30
2017-05-23T14:31:12.025Z,13.10
2017-05-23T14:33:41.266Z,12.56
2017-05-23T14:36:10.643Z,10.70
2017-05-23T14:38:40.280Z,10.84
2017-05-23T14:41:09.641Z,11.90
2017-05-23T14:43:39.547Z,11.38
2017-05-23T14:46:09.400Z,13.62
2017-05-23T14:48:38.621Z,13.36
2017-05-23T14:51:08.064Z,13.60
2017-05-23T14:53:37.373Z,14.92
2017-05-23T14:56:06.633Z,14.86
2017-05-23T14:58:36.537Z,14.44
2017-05-23T15:01:05.757Z,11.90
2017-05-23T15:03:34.952Z,12.28
2017-05-23T15:06:04.192Z,10.88
2017-05-23T15:08:33.564Z,9.60
2017-05-23T15:11:02.849Z,9.68
2017-05-23T15:13:32.072Z,7.62
2017-05-23T15:16:01.648Z,8.14
2017-05-23T15:18:30.923Z,7.36
2017-05-23T15:21:00.174Z,7.70
2017-05-23T15:23:29.793Z,7.90
2017-05-23T15:25:59.188Z,7.30
2017-05-23T15:28:28.379Z,9.12
2017-05-23T15:30:57.604Z,11.52
2017-05-23T15:33:26.799Z,10.70
2017-05-23T15:35:56.465Z,9.48
2017-05-23T15:38:25.778Z,13.22
2017-05-23T15:40:54.957Z,12.30
2017-05-23T15:43:24.182Z,12.32
2017-05-23T15:45:53.846Z,13.04
2017-05-23T15:48:23.284Z,11.74
2017-05-23T15:51:56.175Z,12.16
2017-05-23T15:54:25.506Z,13.46
2017-05-23T15:56:55.161Z,11.84
2017-05-23T15:59:24.409Z,13.92
2017-05-23T16:01:53.615Z,12.88
2017-05-23T16:04:22.833Z,10.74
2017-05-23T16:06:52.032Z,10.98
2017-05-23T16:09:21.636Z,11.54
2017-05-23T16:11:50.857Z,11.84
2017-05-23T16:14:20.136Z,10.78
2017-05-23T16:16:49.807Z,11.74
2017-05-23T16:19:19.652Z,15.28
2017-05-23T16:21:49.922Z,19.06
2017-05-23T16:24:21.628Z,14.34
2017-05-23T16:26:51.318Z,11.56
2017-05-23T16:29:20.593Z,8.18
2017-05-23T16:31:49.812Z,7.58
2017-05-23T16:34:19.447Z,5.02
2017-05-23T16:36:48.668Z,4.30
2017-05-23T16:39:18.007Z,4.32
2017-05-23T16:41:47.741Z,4.34
2017-05-23T16:44:17.074Z,4.08
2017-05-23T16:46:46.304Z,5.00
2017-05-23T16:49:15.546Z,5.50
2017-05-23T16:51:45.147Z,4.60
2017-05-23T16:54:14.444Z,4.18
2017-05-23T16:56:45.649Z,3.60
2017-05-23T16:59:15.303Z,3.82
2017-05-23T17:01:44.697Z,3.42
2017-05-23T17:04:14.348Z,3.12
2017-05-23T17:06:43.619Z,2.60
2017-05-23T17:09:14.974Z,2.22
2017-05-23T17:11:46.876Z,2.76
2017-05-23T17:14:16.436Z,2.68
2017-05-23T17:16:45.710Z,3.64
2017-05-23T17:19:16.097Z,2.78
2017-05-23T17:21:47.308Z,3.08
2017-05-23T17:24:16.843Z,3.34
2017-05-23T17:26:46.195Z,4.24
2017-05-23T17:29:17.713Z,4.28
2017-05-23T17:31:48.745Z,4.32
2017-05-23T17:34:19.245Z,3.86
2017-05-23T17:36:51.486Z,3.82
2017-05-23T17:39:22.341Z,3.64
2017-05-23T17:41:52.597Z,2.98
2017-05-23T17:44:23.401Z,3.00
2017-05-23T17:46:53.952Z,3.80
2017-05-23T17:49:24.686Z,3.04
2017-05-23T17:51:54.085Z,3.50
2017-05-23T17:54:23.694Z,3.12
2017-05-23T17:56:56.491Z,3.50
2017-05-23T17:59:26.385Z,2.66
2017-05-23T18:01:55.666Z,3.02
2017-05-23T18:04:25.022Z,3.22
2017-05-23T18:06:54.230Z,3.56
2017-05-23T18:09:23.481Z,2.52
2017-05-23T18:11:52.845Z,2.92
2017-05-23T18:14:23.234Z,4.18
2017-05-23T18:16:52.890Z,3.20
2017-05-23T18:19:22.277Z,3.92
2017-05-23T18:21:51.849Z,4.30
2017-05-23T18:24:21.081Z,3.76
2017-05-23T18:26:50.346Z,4.50
2017-05-23T18:29:19.649Z,3.80
2017-05-23T18:31:48.920Z,5.34
2017-05-23T18:34:18.145Z,3.54
2017-05-23T18:36:47.402Z,3.08
2017-05-23T18:39:16.849Z,4.16
2017-05-23T18:41:46.566Z,3.32
2017-05-23T18:44:15.752Z,2.96
2017-05-23T18:46:45.205Z,3.20
2017-05-23T18:49:14.488Z,3.00
2017-05-23T18:51:43.777Z,3.50
2017-05-23T18:54:13.047Z,3.14
2017-05-23T18:56:42.375Z,3.56
2017-05-23T18:59:11.580Z,3.42
2017-05-23T19:01:40.817Z,2.66
2017-05-23T19:04:10.144Z,2.72
2017-05-23T19:06:39.791Z,3.78
2017-05-23T19:09:09.088Z,2.92
2017-05-23T19:11:38.325Z,3.62
2017-05-23T19:14:07.720Z,3.52
2017-05-23T19:16:37.168Z,2.92
2017-05-23T19:19:06.460Z,2.30
2017-05-23T19:21:35.682Z,2.82
2017-05-23T19:24:04.912Z,2.36
2017-05-23T19:26:34.148Z,2.40
2017-05-23T19:29:03.365Z,2.58
2017-05-23T19:31:33.184Z,1.82
2017-05-23T19:34:02.796Z,2.42
2017-05-23T19:36:31.991Z,2.18
2017-05-23T19:39:01.803Z,2.98
2017-05-23T19:41:31.236Z,2.02
2017-05-23T19:44:01.151Z,2.32
2017-05-23T19:46:30.416Z,2.60
2017-05-23T19:48:59.631Z,2.62
2017-05-23T19:51:29.262Z,2.30
2017-05-23T19:53:58.544Z,2.06
2017-05-23T19:56:31.348Z,2.10
2017-05-23T19:59:00.540Z,2.24
2017-05-23T20:01:29.764Z,2.16
2017-05-23T20:03:59.020Z,1.84
2017-05-23T20:06:28.623Z,2.10
2017-05-23T20:08:57.877Z,1.90
2017-05-23T20:11:27.079Z,1.60
2017-05-23T20:13:58.394Z,1.90
2017-05-23T20:16:28.156Z,2.24
2017-05-23T20:18:57.389Z,1.92
2017-05-23T20:21:27.056Z,2.74
2017-05-23T20:23:56.248Z,2.30
2017-05-23T20:26:25.497Z,3.70
2017-05-23T20:28:54.784Z,2.58
2017-05-23T20:31:24.026Z,2.88
2017-05-23T20:33:53.560Z,2.16
2017-05-23T20:36:23.450Z,2.14
2017-05-23T20:38:53.393Z,2.62
2017-05-23T20:41:24.461Z,2.46
2017-05-23T20:43:54.253Z,2.22
2017-05-23T20:46:25.611Z,1.60
2017-05-23T20:48:55.664Z,2.68
2017-05-23T20:51:24.973Z,1.48
2017-05-23T20:53:55.028Z,2.24
2017-05-23T20:56:24.243Z,1.94
2017-05-23T20:58:53.952Z,1.70
2017-05-23T21:01:23.669Z,1.74
2017-05-23T21:03:52.848Z,2.66
2017-05-23T21:06:28.633Z,2.18
2017-05-23T21:08:57.942Z,2.78
2017-05-23T21:11:27.187Z,1.76
2017-05-23T21:13:56.379Z,2.20
2017-05-23T21:16:25.612Z,1.82
2017-05-23T21:18:55.095Z,1.50
2017-05-23T21:21:24.321Z,4.40
2017-05-23T21:23:53.521Z,2.10
2017-05-23T21:26:22.722Z,1.84
2017-05-23T21:28:51.917Z,1.82
2017-05-23T21:31:21.789Z,2.20
2017-05-23T21:33:51.057Z,1.72
2017-05-23T21:36:20.296Z,2.00
2017-05-23T21:38:49.486Z,1.92
2017-05-23T21:41:18.697Z,2.20
2017-05-23T21:43:47.979Z,2.12
2017-05-23T21:46:17.240Z,2.40
2017-05-23T21:48:46.711Z,1.86
2017-05-23T21:51:15.900Z,1.94
2017-05-23T21:53:45.094Z,1.60
2017-05-23T21:56:15.228Z,1.94
2017-05-23T21:58:44.476Z,2.70
2017-05-23T22:01:13.695Z,2.38
2017-05-23T22:03:43.221Z,2.12
2017-05-23T22:06:12.539Z,2.36
2017-05-23T22:08:41.781Z,1.88
2017-05-23T22:11:11.034Z,2.28
2017-05-23T22:13:43.537Z,1.88
2017-05-23T22:16:13.697Z,2.68
2017-05-23T22:18:42.943Z,2.30
2017-05-23T22:21:12.612Z,1.96
2017-05-23T22:23:41.824Z,2.56
2017-05-23T22:26:11.245Z,2.72
2017-05-23T22:28:40.479Z,2.60
2017-05-23T22:31:09.721Z,2.46
2017-05-23T22:33:39.260Z,2.30
2017-05-23T22:36:08.795Z,2.52
2017-05-23T22:38:38.017Z,1.82
2017-05-23T22:41:07.218Z,2.52
2017-05-23T22:43:37.056Z,2.02
2017-05-23T22:46:06.314Z,2.54
2017-05-23T22:48:35.742Z,4.10
2017-05-23T22:51:05.019Z,2.38
2017-05-23T22:53:34.264Z,2.78
2017-05-23T22:56:03.504Z,3.44
2017-05-23T22:58:32.712Z,2.70
2017-05-23T23:01:02.036Z,2.80
2017-05-23T23:03:31.225Z,3.24
2017-05-23T23:06:00.416Z,2.64
2017-05-23T23:08:30.085Z,3.20
2017-05-23T23:10:59.602Z,2.76
2017-05-23T23:13:28.812Z,2.80
2017-05-23T23:15:58.394Z,3.28
2017-05-23T23:18:28.327Z,4.12
2017-05-23T23:20:57.549Z,3.54
2017-05-23T23:23:27.752Z,2.96
2017-05-23T23:25:57.012Z,4.00
2017-05-23T23:28:26.454Z,2.68
2017-05-23T23:30:56.757Z,2.60
2017-05-23T23:33:26.480Z,3.30
2017-05-23T23:35:55.685Z,3.20
2017-05-23T23:38:25.816Z,3.30
2017-05-23T23:40:55.048Z,3.50
2017-05-23T23:43:24.917Z,4.00
2017-05-23T23:45:54.153Z,3.94
2017-05-23T23:48:23.432Z,3.46
2017-05-23T23:50:55.826Z,3.72
2017-05-23T23:53:25.198Z,4.40
2017-05-23T23:55:54.680Z,4.00
2017-05-23T23:58:25.468Z,3.68
